Time;durP1;ratioP1;P1;durP2;ratioP2;P2;SDS_P1;SDS_P2;PMS_P1;PMS_P2;Temp;Humidity;BMP_temperature;BMP_pressure;BME280_temperature;BME280_humidity;BME280_pressure;Samples;Min_cycle;Max_cycle;Signal;HPM_P1;HPM_P2
2020/12/16 00:00:52;;;;;;;25.15;13.52;;;11.30;99.90;;;;;;4748823;30;20048;-78
2020/12/16 00:03:18;;;;;;;37.88;19.50;;;11.20;99.90;;;;;;4752025;30;20520;-78
2020/12/16 00:05:44;;;;;;;44.58;27.45;;;11.20;99.90;;;;;;4752118;30;20115;-78
2020/12/16 00:08:12;;;;;;;34.92;18.50;;;11.10;99.90;;;;;;4751811;30;20063;-77
2020/12/16 00:10:39;;;;;;;30.77;17.63;;;11.10;99.90;;;;;;4751904;30;20495;-78
2020/12/16 00:13:06;;;;;;;35.50;17.55;;;11.10;99.90;;;;;;4750179;30;20119;-78
2020/12/16 00:15:32;;;;;;;33.03;17.42;;;11.00;99.90;;;;;;4751870;30;20115;-78
2020/12/16 00:17:58;;;;;;;41.05;19.58;;;11.10;99.90;;;;;;4751756;30;20039;-78
2020/12/16 00:20:24;;;;;;;53.13;25.75;;;11.00;99.90;;;;;;4735610;30;20125;-78
2020/12/16 00:22:50;;;;;;;41.35;21.00;;;11.00;99.90;;;;;;4748365;30;20575;-78
2020/12/16 00:25:16;;;;;;;35.50;18.92;;;10.90;99.90;;;;;;4751706;30;20040;-78
2020/12/16 00:27:42;;;;;;;37.58;20.38;;;10.90;99.90;;;;;;4751585;30;20040;-78
2020/12/16 00:30:09;;;;;;;44.22;20.05;;;10.90;99.90;;;;;;4751440;30;20075;-78
2020/12/16 00:32:39;;;;;;;37.00;18.88;;;10.90;99.90;;;;;;4751551;30;20032;-78
2020/12/16 00:35:07;;;;;;;40.80;19.30;;;10.90;99.90;;;;;;4751635;30;20490;-78
2020/12/16 00:37:40;;;;;;;42.72;19.95;;;10.90;99.90;;;;;;4751564;30;20036;-78
2020/12/16 00:40:07;;;;;;;;;;;10.90;99.90;;;;;;4751984;30;20036;-78
2020/12/16 00:42:34;;;;;;;43.88;19.55;;;10.90;99.90;;;;;;4751413;30;20041;-78
2020/12/16 00:45:00;;;;;;;43.45;19.48;;;10.90;99.90;;;;;;4750044;30;20501;-78
2020/12/16 00:47:26;;;;;;;33.85;17.85;;;10.90;99.90;;;;;;4751077;30;20166;-78
2020/12/16 00:49:52;;;;;;;34.47;18.35;;;10.80;99.90;;;;;;4750041;30;20040;-78
2020/12/16 00:52:19;;;;;;;29.02;16.30;;;10.80;99.90;;;;;;4750896;30;20033;-78
2020/12/16 00:54:45;;;;;;;35.10;19.73;;;10.90;99.90;;;;;;4750048;30;20043;-78
2020/12/16 00:57:12;;;;;;;40.35;17.70;;;10.80;99.90;;;;;;4751339;30;20158;-78
2020/12/16 00:59:39;;;;;;;37.78;19.52;;;10.90;99.90;;;;;;4749799;30;20044;-78
2020/12/16 01:02:06;;;;;;;34.75;16.48;;;10.90;99.90;;;;;;4749718;30;20040;-78
2020/12/16 01:04:32;;;;;;;44.10;19.42;;;10.90;99.90;;;;;;4750961;30;20043;-78
2020/12/16 01:06:59;;;;;;;35.08;18.42;;;10.90;99.90;;;;;;4749694;30;20040;-78
2020/12/16 01:09:25;;;;;;;61.95;28.40;;;10.90;99.90;;;;;;4749481;30;20182;-78
2020/12/16 01:11:51;;;;;;;35.15;18.55;;;10.90;99.90;;;;;;4749850;30;20094;-78
2020/12/16 01:14:17;;;;;;;31.52;16.35;;;10.90;99.90;;;;;;4748806;30;20031;-78
2020/12/16 01:16:43;;;;;;;31.67;16.52;;;10.90;99.90;;;;;;4749557;30;20036;-78
2020/12/16 01:19:14;;;;;;;29.48;15.40;;;10.80;99.90;;;;;;4749439;30;20085;-78
2020/12/16 01:21:45;;;;;;;30.88;15.05;;;10.80;99.90;;;;;;4749453;30;20064;-78
2020/12/16 01:24:13;;;;;;;32.60;17.10;;;10.80;99.90;;;;;;4749812;30;20495;-78
2020/12/16 01:26:47;;;;;;;39.88;15.75;;;10.80;99.90;;;;;;4749508;30;20104;-78
2020/12/16 01:29:17;;;;;;;33.28;16.77;;;10.90;99.90;;;;;;4762959;30;20043;-79
2020/12/16 01:31:45;;;;;;;29.92;15.00;;;10.90;99.90;;;;;;4750655;30;20044;-78
2020/12/16 01:34:19;;;;;;;26.65;14.45;;;10.90;99.90;;;;;;4749338;30;20036;-78
2020/12/16 01:36:50;;;;;;;27.95;15.50;;;10.90;99.90;;;;;;4749193;30;20530;-78
2020/12/16 01:39:17;;;;;;;29.13;15.75;;;10.90;99.90;;;;;;4750370;30;20036;-78
2020/12/16 01:41:48;;;;;;;26.95;13.45;;;10.90;99.90;;;;;;4749753;30;20036;-78
2020/12/16 01:44:22;;;;;;;25.10;13.60;;;10.90;99.90;;;;;;4763870;30;20119;-78
2020/12/16 01:46:56;;;;;;;24.08;13.88;;;10.90;99.90;;;;;;4749138;30;20523;-78
2020/12/16 01:49:28;;;;;;;28.63;13.93;;;10.90;99.90;;;;;;4748722;30;20040;-78
2020/12/16 01:51:56;;;;;;;23.85;13.50;;;10.90;99.90;;;;;;4748853;30;20040;-78
2020/12/16 01:54:24;;;;;;;26.25;14.27;;;11.00;99.90;;;;;;4749196;30;20042;-78
2020/12/16 01:56:55;;;;;;;28.15;13.40;;;11.00;99.90;;;;;;4750052;30;20036;-78
2020/12/16 01:59:36;;;;;;;24.77;13.38;;;10.90;99.90;;;;;;4749114;30;20388;-78
2020/12/16 02:02:07;;;;;;;20.77;11.60;;;10.90;99.90;;;;;;4748726;30;20069;-77
2020/12/16 02:04:38;;;;;;;25.52;14.68;;;10.90;99.90;;;;;;4749020;30;20066;-78
2020/12/16 02:07:11;;;;;;;25.63;13.00;;;10.90;99.90;;;;;;4750043;30;20039;-78
2020/12/16 02:09:44;;;;;;;23.40;13.10;;;10.90;99.90;;;;;;4748737;30;20061;-78
2020/12/16 02:12:36;;;;;;;30.30;13.35;;;10.90;99.90;;;;;;4748511;30;20477;-78
2020/12/16 02:15:05;;;;;;;22.27;12.38;;;10.90;99.90;;;;;;4748526;30;20036;-78
2020/12/16 02:17:32;;;;;;;21.40;11.85;;;10.90;99.90;;;;;;4734127;30;20503;-78
2020/12/16 02:20:01;;;;;;;21.05;11.35;;;10.80;99.90;;;;;;4748420;30;20125;-78
2020/12/16 02:22:31;;;;;;;22.00;12.25;;;10.80;99.90;;;;;;4747983;30;20063;-78
2020/12/16 02:25:04;;;;;;;25.77;12.18;;;10.80;99.90;;;;;;4748392;30;20040;-78
2020/12/16 02:27:35;;;;;;;30.48;11.27;;;10.70;99.90;;;;;;4763254;30;20513;-78
2020/12/16 02:30:11;;;;;;;27.85;13.10;;;10.60;99.90;;;;;;4762952;30;20057;-79
2020/12/16 02:32:56;;;;;;;23.23;12.65;;;10.60;99.90;;;;;;4744318;30;20059;-78
2020/12/16 02:35:25;;;;;;;23.83;12.57;;;10.50;99.90;;;;;;4747833;30;20032;-78
2020/12/16 02:38:02;;;;;;;22.05;11.57;;;10.50;99.90;;;;;;4743910;30;20036;-78
2020/12/16 02:40:31;;;;;;;26.60;13.48;;;10.60;99.90;;;;;;4747657;30;20041;-77
2020/12/16 02:42:58;;;;;;;20.65;11.23;;;10.60;99.90;;;;;;4747652;30;20036;-77
2020/12/16 02:45:47;;;;;;;22.13;11.95;;;10.60;99.90;;;;;;4747093;30;20036;-77
2020/12/16 02:48:20;;;;;;;19.92;11.73;;;10.60;99.90;;;;;;4747603;30;20052;-77
2020/12/16 02:50:46;;;;;;;21.98;12.00;;;10.60;99.90;;;;;;4747753;30;20036;-78
2020/12/16 02:53:13;;;;;;;26.00;11.68;;;10.60;99.90;;;;;;4747533;30;20093;-78
2020/12/16 02:55:57;;;;;;;19.90;11.52;;;10.50;99.90;;;;;;4748602;30;20461;-77
2020/12/16 02:58:26;;;;;;;26.42;11.65;;;10.40;99.90;;;;;;4730111;30;20067;-78
2020/12/16 03:00:53;;;;;;;28.27;10.77;;;10.40;99.90;;;;;;4731064;30;20065;-78
2020/12/16 03:03:38;;;;;;;18.02;10.23;;;10.30;99.90;;;;;;4745719;30;20060;-79
2020/12/16 03:06:22;;;;;;;16.83;10.27;;;10.30;99.90;;;;;;4749096;30;20134;-78
2020/12/16 03:08:54;;;;;;;15.02;9.02;;;10.30;99.90;;;;;;4744400;30;20114;-78
2020/12/16 03:11:21;;;;;;;15.63;8.88;;;10.30;99.90;;;;;;4748030;30;20075;-78
2020/12/16 03:13:52;;;;;;;12.63;8.55;;;10.20;99.90;;;;;;4748116;30;20068;-78
2020/12/16 03:16:19;;;;;;;13.57;8.63;;;10.30;99.90;;;;;;4729579;30;20123;-78
2020/12/16 03:18:48;;;;;;;19.05;10.10;;;10.30;99.90;;;;;;4730262;30;20115;-78
2020/12/16 03:21:24;;;;;;;16.63;8.27;;;10.40;99.90;;;;;;4734122;30;20165;-78
2020/12/16 03:24:02;;;;;;;17.80;9.20;;;10.50;99.90;;;;;;4748600;30;20036;-77
2020/12/16 03:31:14;;;;;;;17.75;9.50;;;10.50;99.90;;;;;;4743090;30;20036;-78
2020/12/16 03:34:21;;;;;;;19.08;10.27;;;10.40;99.90;;;;;;4747649;30;20048;-77
2020/12/16 03:36:58;;;;;;;19.70;9.50;;;10.30;99.90;;;;;;4750555;30;20028;-78
2020/12/16 03:39:37;;;;;;;17.40;10.15;;;10.20;99.90;;;;;;4750678;30;20507;-77
2020/12/16 03:42:11;;;;;;;19.45;10.23;;;10.10;99.90;;;;;;4750691;30;20047;-77
2020/12/16 03:44:38;;;;;;;19.42;10.23;;;10.10;99.90;;;;;;4751852;30;20966;-77
2020/12/16 03:47:04;;;;;;;20.10;10.18;;;10.00;99.90;;;;;;4750556;30;20079;-77
2020/12/16 03:49:31;;;;;;;18.95;9.85;;;10.00;99.90;;;;;;4750906;30;20381;-77
2020/12/16 03:51:58;;;;;;;19.25;7.55;;;9.90;99.90;;;;;;4750557;30;20040;-77
2020/12/16 03:54:32;;;;;;;16.27;9.43;;;9.90;99.90;;;;;;4750382;30;20039;-77
2020/12/16 03:57:25;;;;;;;13.43;7.72;;;9.90;99.90;;;;;;4744003;30;20427;-78
2020/12/16 04:00:10;;;;;;;16.80;8.50;;;9.90;99.90;;;;;;4747600;30;20048;-78
2020/12/16 04:02:42;;;;;;;15.55;9.32;;;10.00;99.90;;;;;;4734347;30;20037;-78
2020/12/16 04:05:33;;;;;;;15.20;8.65;;;10.00;99.90;;;;;;4762564;30;20048;-78
2020/12/16 04:08:00;;;;;;;18.70;9.25;;;10.00;99.90;;;;;;4757852;30;20073;-77
2020/12/16 04:10:44;;;;;;;18.35;10.95;;;10.00;99.90;;;;;;4747537;30;20494;-76
2020/12/16 04:13:14;;;;;;;26.55;10.90;;;10.00;99.90;;;;;;4732733;30;20047;-77
2020/12/16 04:15:43;;;;;;;23.10;11.50;;;10.00;99.90;;;;;;4739108;30;20472;-78
2020/12/16 04:18:10;;;;;;;23.48;11.45;;;10.00;99.90;;;;;;4734126;30;20035;-77
2020/12/16 04:20:37;;;;;;;15.10;8.57;;;10.00;99.90;;;;;;4732408;30;20106;-78
2020/12/16 04:23:04;;;;;;;17.10;8.77;;;10.00;99.90;;;;;;4718153;30;20122;-77
2020/12/16 04:25:33;;;;;;;14.50;8.70;;;10.00;99.90;;;;;;4732289;30;20094;-78
2020/12/16 04:28:01;;;;;;;15.45;9.13;;;10.00;99.90;;;;;;4717775;30;20036;-78
2020/12/16 04:30:28;;;;;;;16.65;8.07;;;10.00;99.90;;;;;;4733574;30;20045;-78
2020/12/16 04:32:57;;;;;;;13.68;7.32;;;10.10;99.90;;;;;;4733561;30;20039;-78
2020/12/16 04:35:25;;;;;;;13.57;7.22;;;10.00;99.90;;;;;;4746616;30;20040;-78
2020/12/16 04:37:53;;;;;;;13.98;7.63;;;10.10;99.90;;;;;;4717757;30;20512;-78
2020/12/16 04:40:20;;;;;;;11.15;7.05;;;10.10;99.90;;;;;;4703139;30;20048;-77
2020/12/16 04:43:07;;;;;;;12.15;7.95;;;10.10;99.90;;;;;;4717998;30;20033;-77
2020/12/16 04:45:40;;;;;;;11.52;6.78;;;10.10;99.90;;;;;;4716593;30;20036;-77
2020/12/16 04:48:09;;;;;;;14.40;8.23;;;10.10;99.90;;;;;;4746596;30;20044;-78
2020/12/16 04:50:36;;;;;;;12.65;7.13;;;10.10;99.90;;;;;;4731986;30;20504;-78
2020/12/16 04:53:05;;;;;;;11.90;6.82;;;10.10;99.90;;;;;;4733225;30;20040;-77
2020/12/16 04:55:57;;;;;;;13.38;8.32;;;10.10;99.90;;;;;;4723312;30;20556;-78
2020/12/16 04:58:56;;;;;;;14.23;7.53;;;10.10;99.90;;;;;;4716895;30;20029;-77
2020/12/16 05:01:24;;;;;;;14.88;7.43;;;10.10;99.90;;;;;;4714508;30;20052;-77
2020/12/16 05:03:54;;;;;;;14.00;7.82;;;10.10;99.90;;;;;;4715278;30;20395;-77
2020/12/16 05:06:44;;;;;;;12.23;6.90;;;10.00;99.90;;;;;;4722213;30;20431;-77
2020/12/16 05:09:16;;;;;;;10.98;6.30;;;10.00;99.90;;;;;;4726768;30;20388;-77
2020/12/16 05:11:47;;;;;;;10.93;6.28;;;10.00;99.90;;;;;;4729943;30;20488;-77
2020/12/16 05:14:22;;;;;;;15.82;6.93;;;9.90;99.90;;;;;;4731905;30;20024;-78
2020/12/16 05:17:00;;;;;;;13.27;6.43;;;9.90;99.90;;;;;;4729540;30;20032;-78
2020/12/16 05:19:29;;;;;;;10.50;6.15;;;9.80;99.90;;;;;;4713067;30;20041;-78
2020/12/16 05:22:21;;;;;;;9.65;5.60;;;9.80;99.90;;;;;;4722356;30;20899;-78
2020/12/16 05:25:00;;;;;;;11.32;5.75;;;9.80;99.90;;;;;;4731200;30;20448;-78
2020/12/16 05:27:31;;;;;;;8.98;5.35;;;9.90;99.90;;;;;;4733045;30;20042;-78
2020/12/16 05:30:07;;;;;;;14.80;6.47;;;9.90;99.90;;;;;;4748353;30;20036;-78
2020/12/16 05:32:35;;;;;;;11.88;6.15;;;9.90;99.90;;;;;;4749261;30;20671;-78
2020/12/16 05:35:33;;;;;;;14.10;7.30;;;9.90;99.90;;;;;;4750573;30;20032;-78
2020/12/16 05:38:00;;;;;;;11.15;5.47;;;9.80;99.90;;;;;;4750638;30;20024;-78
2020/12/16 05:40:29;;;;;;;12.45;6.03;;;9.90;99.90;;;;;;4750413;30;20075;-78
2020/12/16 05:42:55;;;;;;;7.63;5.18;;;9.80;99.90;;;;;;4750494;30;20887;-78
2020/12/16 05:45:23;;;;;;;9.30;6.20;;;9.80;99.90;;;;;;4750482;30;20060;-78
2020/12/16 05:48:10;;;;;;;10.50;6.38;;;9.90;99.90;;;;;;4750359;30;20047;-78
2020/12/16 05:50:44;;;;;;;9.52;6.47;;;9.90;99.90;;;;;;4733003;30;20037;-78
2020/12/16 05:53:19;;;;;;;9.13;5.55;;;9.90;99.90;;;;;;4732772;30;20090;-78
2020/12/16 05:55:57;;;;;;;9.50;4.78;;;9.90;99.90;;;;;;4732637;30;20044;-78
2020/12/16 05:58:25;;;;;;;8.02;4.95;;;9.90;99.90;;;;;;4732897;30;20116;-78
2020/12/16 06:01:00;;;;;;;6.65;4.63;;;9.90;99.90;;;;;;4749710;30;20059;-78
2020/12/16 06:03:34;;;;;;;9.05;4.85;;;9.90;99.90;;;;;;4750089;30;20400;-78
2020/12/16 06:06:07;;;;;;;9.95;5.22;;;9.90;99.90;;;;;;4750072;30;20036;-78
2020/12/16 06:08:43;;;;;;;8.95;5.57;;;9.90;99.90;;;;;;4750047;30;20040;-78
2020/12/16 06:11:12;;;;;;;12.90;6.28;;;9.90;99.90;;;;;;4749750;30;20036;-78
2020/12/16 06:13:44;;;;;;;36.78;7.78;;;9.80;99.90;;;;;;4750021;30;20533;-78
2020/12/16 06:16:10;;;;;;;23.27;6.80;;;9.80;99.90;;;;;;4750287;30;20446;-78
2020/12/16 06:18:44;;;;;;;43.22;10.45;;;9.80;99.90;;;;;;4749685;30;20059;-78
2020/12/16 06:21:14;;;;;;;21.08;8.63;;;9.80;99.90;;;;;;4749294;30;20052;-78
2020/12/16 06:23:42;;;;;;;23.13;8.55;;;9.80;99.90;;;;;;4749332;30;20032;-78
2020/12/16 06:26:19;;;;;;;12.60;7.03;;;9.80;99.90;;;;;;4750179;30;20111;-78
2020/12/16 06:28:46;;;;;;;9.02;5.47;;;9.80;99.90;;;;;;4749665;30;20430;-78
2020/12/16 06:31:12;;;;;;;14.15;6.07;;;9.80;99.90;;;;;;4749493;30;20032;-78
2020/12/16 06:33:53;;;;;;;14.77;6.22;;;9.80;99.90;;;;;;4748302;30;20122;-78
2020/12/16 06:36:24;;;;;;;7.75;4.47;;;9.90;99.90;;;;;;4749539;30;20040;-78
2020/12/16 06:38:50;;;;;;;24.38;5.80;;;9.90;99.90;;;;;;4749923;30;20032;-78
2020/12/16 06:41:26;;;;;;;12.40;4.95;;;9.90;99.90;;;;;;4749027;30;20119;-78
2020/12/16 06:43:54;;;;;;;8.93;5.35;;;10.00;99.90;;;;;;4749653;30;20036;-78
2020/12/16 06:46:38;;;;;;;13.25;5.50;;;10.00;99.90;;;;;;4749169;30;20028;-78
2020/12/16 06:49:28;;;;;;;11.15;5.13;;;10.10;99.90;;;;;;4749328;30;20036;-78
2020/12/16 06:52:07;;;;;;;9.07;5.57;;;10.10;99.90;;;;;;4748693;30;20040;-78
2020/12/16 06:54:44;;;;;;;9.77;5.88;;;10.20;99.90;;;;;;4749028;30;20517;-78
2020/12/16 06:57:32;;;;;;;13.50;5.13;;;10.30;99.90;;;;;;4749221;30;20175;-78
2020/12/16 07:00:02;;;;;;;10.90;4.22;;;10.40;99.90;;;;;;4749426;30;20037;-78
2020/12/16 07:02:30;;;;;;;16.42;5.38;;;10.40;99.90;;;;;;4749244;30;20154;-78
2020/12/16 07:04:58;;;;;;;8.98;4.43;;;10.40;99.90;;;;;;4749267;30;20025;-78
2020/12/16 07:07:43;;;;;;;12.70;5.25;;;10.40;99.90;;;;;;4749038;30;20093;-78
2020/12/16 07:10:48;;;;;;;7.55;4.82;;;10.40;99.90;;;;;;4749072;30;20043;-78
2020/12/16 07:13:27;;;;;;;12.93;5.70;;;10.40;99.90;;;;;;4694196;30;20124;-78
2020/12/16 07:16:10;;;;;;;15.70;7.80;;;10.30;99.90;;;;;;4694651;30;20570;-78
2020/12/16 07:18:38;;;;;;;15.68;7.40;;;10.40;99.90;;;;;;4731521;30;20036;-78
2020/12/16 07:21:08;;;;;;;25.33;7.50;;;10.40;99.90;;;;;;4748745;30;20462;-78
2020/12/16 07:23:43;;;;;;;23.88;9.25;;;10.30;99.90;;;;;;4732797;30;20520;-78
2020/12/16 07:26:12;;;;;;;23.90;7.43;;;10.40;99.90;;;;;;4748872;30;20028;-78
2020/12/16 07:28:38;;;;;;;23.02;7.95;;;10.40;99.90;;;;;;4749003;30;20524;-78
2020/12/16 07:31:06;;;;;;;11.45;6.10;;;10.40;99.90;;;;;;4748949;30;20096;-78
2020/12/16 07:33:33;;;;;;;11.43;5.00;;;10.40;99.90;;;;;;4747593;30;20353;-78
2020/12/16 07:36:00;;;;;;;10.45;5.95;;;10.60;99.90;;;;;;4748724;30;20047;-78
2020/12/16 07:38:26;;;;;;;11.80;5.57;;;10.70;99.90;;;;;;4748854;30;20067;-78
2020/12/16 07:40:56;;;;;;;11.07;5.50;;;10.80;99.90;;;;;;4747784;30;20792;-78
2020/12/16 07:43:23;;;;;;;17.55;5.70;;;10.90;99.90;;;;;;4748930;30;20036;-78
2020/12/16 07:46:05;;;;;;;13.40;6.18;;;11.00;99.90;;;;;;4747265;30;20040;-78
2020/12/16 07:48:33;;;;;;;17.15;6.60;;;11.10;99.90;;;;;;4748684;30;20384;-77
2020/12/16 07:51:05;;;;;;;12.45;6.85;;;11.20;99.90;;;;;;4748869;30;20480;-78
2020/12/16 07:53:33;;;;;;;15.50;6.18;;;11.20;99.90;;;;;;4748763;30;20519;-78
2020/12/16 07:56:00;;;;;;;15.57;7.53;;;11.30;99.90;;;;;;4747724;30;20303;-78
2020/12/16 07:58:27;;;;;;;9.77;6.00;;;11.30;99.90;;;;;;4748751;30;20040;-78
2020/12/16 08:01:05;;;;;;;10.93;5.63;;;11.40;99.90;;;;;;4752151;30;20055;-77
2020/12/16 08:03:33;;;;;;;15.23;6.70;;;11.40;99.90;;;;;;4748796;30;20040;-78
2020/12/16 08:06:00;;;;;;;12.95;6.40;;;11.50;99.90;;;;;;4747065;30;20028;-78
2020/12/16 08:08:26;;;;;;;12.63;7.10;;;11.60;99.90;;;;;;4748381;30;20033;-79
2020/12/16 08:10:52;;;;;;;14.25;6.68;;;11.80;99.90;;;;;;4748822;30;20093;-78
2020/12/16 08:13:23;;;;;;;13.02;6.13;;;11.90;99.90;;;;;;4748436;30;20085;-78
2020/12/16 08:15:49;;;;;;;17.77;7.40;;;12.00;99.90;;;;;;4748545;30;20151;-78
2020/12/16 08:18:17;;;;;;;12.88;6.45;;;12.10;99.90;;;;;;4748698;30;20047;-78
2020/12/16 08:20:43;;;;;;;16.95;6.40;;;12.30;99.90;;;;;;4748622;30;20083;-78
2020/12/16 08:23:15;;;;;;;15.30;6.88;;;12.30;99.90;;;;;;4750518;30;20093;-78
2020/12/16 08:25:42;;;;;;;10.60;5.35;;;12.50;99.90;;;;;;4751514;30;20044;-79
2020/12/16 08:28:09;;;;;;;10.93;4.95;;;12.60;99.90;;;;;;4751835;30;20024;-78
2020/12/16 08:30:38;;;;;;;10.10;4.80;;;12.70;99.90;;;;;;4751853;30;20067;-78
2020/12/16 08:33:12;;;;;;;7.63;4.88;;;12.80;99.90;;;;;;4751693;30;20039;-78
2020/12/16 08:36:00;;;;;;;9.82;4.13;;;12.90;99.90;;;;;;4750102;30;20040;-78
2020/12/16 08:38:39;;;;;;;11.52;4.55;;;13.10;99.90;;;;;;4751245;30;20506;-78
2020/12/16 08:41:10;;;;;;;8.82;3.88;;;13.20;99.90;;;;;;4751351;30;20048;-78
2020/12/16 08:43:42;;;;;;;8.95;3.50;;;13.30;99.90;;;;;;4751682;30;20036;-78
2020/12/16 08:46:09;;;;;;;6.45;3.53;;;13.40;99.90;;;;;;4751188;30;20032;-78
2020/12/16 08:48:52;;;;;;;5.40;3.42;;;13.50;99.90;;;;;;4751357;30;20032;-78
2020/12/16 08:51:24;;;;;;;9.07;4.00;;;13.60;99.90;;;;;;4751808;30;20365;-78
2020/12/16 08:53:59;;;;;;;11.75;3.63;;;13.80;99.90;;;;;;4751525;30;20454;-78
2020/12/16 08:56:30;;;;;;;6.38;3.17;;;13.90;99.90;;;;;;4750988;30;20983;-77
2020/12/16 08:59:28;;;;;;;5.50;3.33;;;14.00;99.90;;;;;;4764743;30;20036;-78
2020/12/16 09:02:06;;;;;;;8.18;3.30;;;14.10;99.90;;;;;;4751066;30;20075;-78
2020/12/16 09:04:38;;;;;;;8.18;3.40;;;14.20;99.90;;;;;;4751151;30;20044;-78
2020/12/16 09:07:15;;;;;;;5.07;3.08;;;14.30;99.90;;;;;;4750828;30;20048;-78
2020/12/16 09:09:51;;;;;;;7.40;3.15;;;14.30;99.90;;;;;;4751088;30;20036;-78
2020/12/16 09:12:22;;;;;;;7.60;3.10;;;14.30;99.90;;;;;;4751089;30;20064;-78
2020/12/16 09:14:55;;;;;;;9.40;2.55;;;14.20;99.90;;;;;;4750984;30;20098;-78
2020/12/16 09:17:31;;;;;;;14.75;3.63;;;14.20;99.90;;;;;;4750669;30;20047;-78
2020/12/16 09:19:58;;;;;;;8.27;3.50;;;14.20;99.90;;;;;;4750903;30;20059;-78
2020/12/16 09:22:26;;;;;;;9.93;3.72;;;14.20;99.90;;;;;;4750713;30;20060;-78
2020/12/16 09:24:56;;;;;;;19.58;5.00;;;14.20;99.90;;;;;;4751246;30;20432;-78
2020/12/16 09:27:22;;;;;;;8.05;3.10;;;14.30;99.90;;;;;;4750707;30;20032;-78
2020/12/16 09:29:49;;;;;;;12.57;3.40;;;14.40;99.90;;;;;;4750807;30;20125;-78
2020/12/16 09:32:18;;;;;;;9.88;3.97;;;14.50;99.90;;;;;;4743638;30;20032;-78
2020/12/16 09:34:52;;;;;;;13.45;3.80;;;14.70;99.90;;;;;;4734415;30;20040;-77
2020/12/16 09:37:24;;;;;;;7.70;3.80;;;14.80;99.90;;;;;;4746920;30;20119;-78
2020/12/16 09:40:01;;;;;;;7.97;3.67;;;15.00;99.90;;;;;;4750409;30;20035;-78
2020/12/16 09:42:28;;;;;;;8.27;3.58;;;15.20;99.90;;;;;;4750655;30;20040;-77
2020/12/16 09:45:09;;;;;;;7.20;3.55;;;15.30;99.90;;;;;;4750369;30;20035;-78
2020/12/16 09:47:45;;;;;;;6.47;3.35;;;15.40;99.90;;;;;;4748820;30;20043;-78
2020/12/16 09:50:11;;;;;;;7.13;2.85;;;15.50;99.90;;;;;;4750077;30;20091;-78
2020/12/16 09:52:39;;;;;;;11.73;4.32;;;15.60;99.90;;;;;;4742715;30;20059;-77
2020/12/16 09:55:20;;;;;;;18.92;3.47;;;15.60;99.90;;;;;;4732336;30;20356;-79
2020/12/16 09:58:01;;;;;;;4.38;2.28;;;15.70;99.90;;;;;;4743694;30;20036;-78
2020/12/16 10:00:28;;;;;;;10.68;2.75;;;15.90;99.90;;;;;;4749810;30;20090;-78
2020/12/16 10:03:22;;;;;;;3.58;2.72;;;16.10;99.90;;;;;;4749626;30;20028;-78
2020/12/16 10:05:48;;;;;;;;;;;16.20;99.90;;;;;;4748810;30;20074;-78
2020/12/16 10:08:16;;;;;;;7.05;2.63;;;16.30;99.90;;;;;;4753271;30;19914;-78
2020/12/16 10:10:44;;;;;;;5.28;2.85;;;16.30;99.90;;;;;;4749196;30;20028;-77
2020/12/16 10:13:11;;;;;;;26.58;4.57;;;16.30;99.90;;;;;;4749488;30;20511;-78
2020/12/16 10:15:37;;;;;;;5.18;3.15;;;16.40;99.90;;;;;;4749377;30;20059;-78
2020/12/16 10:18:04;;;;;;;3.67;2.55;;;16.50;99.90;;;;;;4749478;30;20042;-78
2020/12/16 10:20:30;;;;;;;5.35;2.58;;;16.60;99.90;;;;;;4749367;30;20040;-78
2020/12/16 10:22:57;;;;;;;7.35;2.95;;;16.70;99.90;;;;;;4749146;30;20059;-78
2020/12/16 10:25:23;;;;;;;4.75;2.60;;;16.80;99.90;;;;;;4749072;30;20039;-78
2020/12/16 10:27:50;;;;;;;5.85;3.38;;;16.80;99.90;;;;;;4749093;30;20032;-78
2020/12/16 10:30:16;;;;;;;6.80;2.67;;;16.80;99.90;;;;;;4749348;30;20082;-78
2020/12/16 10:32:43;;;;;;;8.18;3.20;;;16.90;99.90;;;;;;4749378;30;20040;-78
2020/12/16 10:35:09;;;;;;;5.65;3.30;;;17.00;99.90;;;;;;4749172;30;20115;-79
2020/12/16 10:37:40;;;;;;;8.80;3.17;;;17.10;99.90;;;;;;4742025;30;20037;-79
2020/12/16 10:40:09;;;;;;;5.20;2.90;;;17.30;99.90;;;;;;4748679;30;20040;-78
2020/12/16 10:42:36;;;;;;;3.53;2.58;;;17.40;99.90;;;;;;4730837;30;20032;-78
2020/12/16 10:45:03;;;;;;;3.90;2.88;;;17.50;99.90;;;;;;4748709;30;20131;-78
2020/12/16 10:47:29;;;;;;;9.25;3.13;;;17.60;99.90;;;;;;4749093;30;20036;-78
2020/12/16 10:49:55;;;;;;;7.05;2.90;;;17.80;99.90;;;;;;4749224;30;20035;-78
2020/12/16 10:52:21;;;;;;;8.77;2.65;;;18.10;99.90;;;;;;4748915;30;20036;-78
2020/12/16 10:54:47;;;;;;;3.83;2.38;;;18.30;99.90;;;;;;4748534;30;20205;-78
2020/12/16 10:57:14;;;;;;;7.90;3.42;;;18.50;99.90;;;;;;4748977;30;20491;-79
2020/12/16 10:59:40;;;;;;;6.40;2.63;;;18.70;99.90;;;;;;4748715;30;20086;-78
2020/12/16 11:02:06;;;;;;;5.80;2.95;;;18.80;99.90;;;;;;4748724;30;20047;-78
2020/12/16 11:04:32;;;;;;;7.20;3.10;;;18.80;99.90;;;;;;4748545;30;20044;-78
2020/12/16 11:06:58;;;;;;;5.68;2.85;;;18.50;99.50;;;;;;4748854;30;20097;-78
2020/12/16 11:09:24;;;;;;;4.75;2.25;;;18.30;99.40;;;;;;4748351;30;20028;-78
2020/12/16 11:11:53;;;;;;;7.00;2.78;;;18.00;99.90;;;;;;4747588;30;20040;-78
2020/12/16 11:14:20;;;;;;;8.68;2.63;;;17.90;99.90;;;;;;4748654;30;20035;-78
2020/12/16 11:16:47;;;;;;;7.60;2.28;;;17.90;99.90;;;;;;4748529;30;20078;-78
2020/12/16 11:19:15;;;;;;;3.70;1.98;;;18.00;99.90;;;;;;4747177;30;20071;-78
2020/12/16 11:21:43;;;;;;;4.95;2.47;;;18.10;99.90;;;;;;4748577;30;20064;-78
2020/12/16 11:24:11;;;;;;;5.47;2.85;;;18.40;99.80;;;;;;4748547;30;20044;-78
2020/12/16 11:26:44;;;;;;;5.88;2.30;;;18.60;99.70;;;;;;4748411;30;20384;-79
2020/12/16 11:29:10;;;;;;;4.28;2.53;;;18.80;99.30;;;;;;4748222;30;20067;-78
2020/12/16 11:31:46;;;;;;;3.28;2.92;;;19.00;99.10;;;;;;4748653;30;20032;-78
2020/12/16 11:34:13;;;;;;;5.13;3.05;;;19.10;98.90;;;;;;4748498;30;20028;-77
2020/12/16 11:36:41;;;;;;;5.65;2.70;;;19.20;98.50;;;;;;4748516;30;20033;-78
2020/12/16 11:39:07;;;;;;;5.03;2.83;;;19.30;98.30;;;;;;4748114;30;20500;-78
2020/12/16 11:41:34;;;;;;;6.85;2.38;;;19.30;98.10;;;;;;4748482;30;20048;-78
2020/12/16 11:44:01;;;;;;;5.90;2.38;;;19.30;97.90;;;;;;4748326;30;20028;-78
2020/12/16 11:46:30;;;;;;;4.57;2.42;;;19.10;98.00;;;;;;4748653;30;20056;-78
2020/12/16 11:49:00;;;;;;;5.72;2.78;;;19.10;98.10;;;;;;4748544;30;20035;-79
2020/12/16 11:51:27;;;;;;;6.90;2.67;;;19.00;98.30;;;;;;4748236;30;20047;-78
2020/12/16 11:53:54;;;;;;;9.80;3.70;;;19.10;98.10;;;;;;4748395;30;20368;-79
2020/12/16 11:56:20;;;;;;;12.95;2.97;;;19.00;98.50;;;;;;4748217;30;20032;-78
2020/12/16 11:58:47;;;;;;;6.72;2.85;;;19.10;98.80;;;;;;4750120;30;20526;-79
2020/12/16 12:01:19;;;;;;;9.80;2.85;;;19.20;98.70;;;;;;4751448;30;20044;-80
2020/12/16 12:03:46;;;;;;;5.13;2.88;;;19.40;98.40;;;;;;4751837;30;20043;-78
2020/12/16 12:06:14;;;;;;;4.93;2.80;;;19.60;98.00;;;;;;4751620;30;20028;-80
2020/12/16 12:08:42;;;;;;;5.55;2.67;;;19.70;97.50;;;;;;4747193;30;20024;-79
2020/12/16 12:11:14;;;;;;;6.95;3.00;;;19.80;97.30;;;;;;4750411;30;20042;-78
2020/12/16 12:13:41;;;;;;;14.70;3.13;;;19.80;97.10;;;;;;4737556;30;20079;-79
2020/12/16 12:16:12;;;;;;;9.32;4.03;;;19.70;97.20;;;;;;4749487;30;20097;-79
2020/12/16 12:18:40;;;;;;;6.30;2.97;;;19.60;97.10;;;;;;4751648;30;20515;-79
2020/12/16 12:21:18;;;;;;;7.28;3.50;;;19.60;96.80;;;;;;4748016;30;20055;-79
2020/12/16 12:23:50;;;;;;;6.63;3.45;;;19.40;96.80;;;;;;4749121;30;20035;-78
2020/12/16 12:26:18;;;;;;;4.97;2.38;;;19.00;97.20;;;;;;4734637;30;20036;-79
2020/12/16 12:28:45;;;;;;;4.00;2.53;;;18.60;97.60;;;;;;4744989;30;20450;-79
2020/12/16 12:31:12;;;;;;;4.45;2.63;;;18.30;98.20;;;;;;4748681;30;20465;-79
2020/12/16 12:33:38;;;;;;;9.55;3.28;;;18.10;98.50;;;;;;4749658;30;20431;-80
2020/12/16 12:36:04;;;;;;;3.58;2.03;;;18.30;98.70;;;;;;4749725;30;20070;-79
2020/12/16 12:38:31;;;;;;;4.93;3.00;;;18.40;98.40;;;;;;4749076;30;20036;-78
2020/12/16 12:40:57;;;;;;;7.45;2.67;;;18.60;97.90;;;;;;4748830;30;20042;-79
2020/12/16 12:43:24;;;;;;;6.28;2.65;;;18.80;97.40;;;;;;4750269;30;20035;-78
2020/12/16 12:45:51;;;;;;;6.95;2.85;;;19.00;97.50;;;;;;4751113;30;20040;-79
2020/12/16 12:48:17;;;;;;;9.60;3.00;;;19.30;97.40;;;;;;4750715;30;20036;-77
2020/12/16 12:50:44;;;;;;;6.65;2.78;;;19.40;96.90;;;;;;4749961;30;20040;-77
2020/12/16 12:53:10;;;;;;;8.35;3.88;;;19.60;96.80;;;;;;4750851;30;20060;-79
2020/12/16 12:55:38;;;;;;;5.15;3.05;;;19.70;96.70;;;;;;4751015;30;20291;-78
2020/12/16 12:58:06;;;;;;;4.45;2.78;;;19.80;96.00;;;;;;4748585;30;20043;-79
2020/12/16 13:00:34;;;;;;;7.15;3.05;;;19.90;95.80;;;;;;4746774;30;20044;-79
2020/12/16 13:03:24;;;;;;;7.00;3.00;;;20.00;95.70;;;;;;4745607;30;20445;-78
2020/12/16 13:06:08;;;;;;;5.68;3.45;;;20.10;95.40;;;;;;4745572;30;20032;-79